createdAt,value
2022-08-09T00:19:19.463Z,16.9
2022-08-09T00:24:05.823Z,16.9
2022-08-09T00:29:39.390Z,16.8
2022-08-09T00:34:19.147Z,16.8
2022-08-09T00:44:30.371Z,16.6
2022-08-09T00:49:37.173Z,16.6
2022-08-09T00:54:43.489Z,16.5
2022-08-09T00:59:52.682Z,16.5
2022-08-09T01:04:56.360Z,16.4
2022-08-09T01:10:02.735Z,16.3
2022-08-09T01:20:15.492Z,16.2
2022-08-09T01:30:53.331Z,16.1
2022-08-09T01:35:59.541Z,16.1
2022-08-09T01:41:04.916Z,16.0
2022-08-09T01:45:48.274Z,16.0
2022-08-09T01:51:22.993Z,15.9
2022-08-09T01:56:01.040Z,15.9
2022-08-09T02:01:08.001Z,15.9
2022-08-09T02:06:37.860Z,15.8
2022-08-09T02:11:20.202Z,15.8
2022-08-09T02:16:33.675Z,15.7
2022-08-09T02:21:34.254Z,15.6
2022-08-09T02:26:40.252Z,15.6
2022-08-09T02:31:46.629Z,15.5
2022-08-09T02:38:05.138Z,15.4
2022-08-09T02:42:19.988Z,15.4
2022-08-09T02:47:58.784Z,15.3
2022-08-09T02:52:12.712Z,15.3
2022-08-09T02:57:23.604Z,15.2
2022-08-09T03:02:58.639Z,15.2
2022-08-09T03:07:34.009Z,15.1
2022-08-09T03:12:40.435Z,15.1
2022-08-09T03:17:46.782Z,15.0
2022-08-09T03:22:54.624Z,15.0
2022-08-09T03:27:59.666Z,14.9
2022-08-09T03:33:17.274Z,14.9
2022-08-09T03:38:32.563Z,14.8
2022-08-09T03:43:17.932Z,14.8
2022-08-09T03:48:51.934Z,14.8
2022-08-09T03:53:32.367Z,14.7
2022-08-09T03:58:38.277Z,14.7
2022-08-09T04:03:46.404Z,14.6
2022-08-09T04:08:51.257Z,14.6
2022-08-09T04:14:37.107Z,14.6
2022-08-09T04:19:04.033Z,14.5
2022-08-09T04:24:10.412Z,14.5
2022-08-09T04:29:16.796Z,14.4
2022-08-09T04:34:30.658Z,14.4
2022-08-09T04:39:30.863Z,14.4
2022-08-09T04:44:36.168Z,14.3
2022-08-09T04:50:34.848Z,14.3
2022-08-09T04:55:16.983Z,14.3
2022-08-09T04:59:55.470Z,14.3
2022-08-09T05:05:04.263Z,14.3
2022-08-09T05:10:02.063Z,14.3
2022-08-09T05:15:11.889Z,14.3
2022-08-09T05:21:24.547Z,14.3
2022-08-09T05:25:32.562Z,14.3
2022-08-09T05:30:35.262Z,14.4
2022-08-09T05:36:53.887Z,14.4
2022-08-09T05:40:52.140Z,14.4
2022-08-09T05:45:56.732Z,14.5
2022-08-09T05:51:11.776Z,14.6
2022-08-09T05:55:58.392Z,14.6
2022-08-09T06:01:16.055Z,14.7
2022-08-09T06:06:25.296Z,14.8
2022-08-09T06:11:56.932Z,14.9
2022-08-09T06:16:34.082Z,15.0
2022-08-09T06:21:51.549Z,15.1
2022-08-09T06:26:46.936Z,15.2
2022-08-09T06:37:53.373Z,15.4
2022-08-09T06:42:46.690Z,15.5
2022-08-09T06:47:48.605Z,15.6
2022-08-09T06:52:55.013Z,15.7
2022-08-09T06:58:04.172Z,15.8
2022-08-09T07:03:34.058Z,15.9
2022-08-09T07:08:16.429Z,16.0
2022-08-09T07:13:29.284Z,16.1
2022-08-09T07:18:29.822Z,16.3
2022-08-09T07:23:36.433Z,16.5
2022-08-09T07:33:52.281Z,16.8
2022-08-09T07:39:01.016Z,17.2
2022-08-09T07:44:04.751Z,17.9
2022-08-09T07:49:15.430Z,18.8
2022-08-09T07:54:27.753Z,19.8
2022-08-09T07:59:34.197Z,20.9
2022-08-09T08:04:31.583Z,22.0
2022-08-09T08:09:42.572Z,23.1
2022-08-09T08:14:43.305Z,24.0
2022-08-09T08:20:13.803Z,25.0
2022-08-09T08:30:16.428Z,26.6
2022-08-09T08:35:08.790Z,27.4
2022-08-09T08:40:39.936Z,28.1
2022-08-09T08:45:13.838Z,28.9
2022-08-09T08:50:52.943Z,29.6
2022-08-09T08:55:35.291Z,30.2
2022-08-09T09:00:41.797Z,30.8
2022-08-09T09:05:58.617Z,31.3
2022-08-09T09:11:19.806Z,31.9
2022-08-09T09:17:01.098Z,32.4
2022-08-09T09:21:31.406Z,32.9
2022-08-09T09:26:37.882Z,33.4
2022-08-09T09:37:08.774Z,34.3
2022-08-09T09:42:35.424Z,34.7
2022-08-09T09:48:53.678Z,35.0
2022-08-09T09:52:36.450Z,35.3
2022-08-09T09:58:02.900Z,35.6
2022-08-09T10:02:40.663Z,35.9
2022-08-09T10:08:10.902Z,36.1
2022-08-09T10:12:53.783Z,36.5
2022-08-09T10:17:54.912Z,36.7
2022-08-09T10:23:06.219Z,36.9
2022-08-09T10:28:16.589Z,37.1
2022-08-09T10:33:08.968Z,37.4
2022-08-09T10:38:54.443Z,37.6
2022-08-09T10:43:36.199Z,37.9
2022-08-09T10:48:38.266Z,38.0
2022-08-09T10:54:05.143Z,38.2
2022-08-09T10:58:51.037Z,38.4
2022-08-09T11:04:01.869Z,38.6
2022-08-09T11:09:15.503Z,38.9
2022-08-09T11:14:10.310Z,39.0
2022-08-09T11:19:20.649Z,39.1
2022-08-09T11:24:23.015Z,39.1
2022-08-09T11:35:15.461Z,39.0
2022-08-09T11:40:22.839Z,39.0
2022-08-09T11:45:42.658Z,39.0
2022-08-09T11:50:56.199Z,39.0
2022-08-09T11:56:03.068Z,39.0
2022-08-09T12:05:47.356Z,38.9
2022-08-09T12:11:25.462Z,38.8
2022-08-09T12:16:37.643Z,38.7
2022-08-09T12:21:28.604Z,38.5
2022-08-09T12:31:58.112Z,38.2
2022-08-09T12:36:36.168Z,38.1
2022-08-09T12:41:45.838Z,38.0
2022-08-09T12:46:48.925Z,37.8
2022-08-09T12:52:00.582Z,37.8
2022-08-09T12:57:02.071Z,37.8
2022-08-09T13:02:09.449Z,37.7
2022-08-09T13:07:14.830Z,37.7
2022-08-09T13:13:09.036Z,37.7
2022-08-09T13:18:03.480Z,37.7
2022-08-09T13:23:01.085Z,37.8
2022-08-09T13:27:31.980Z,37.8
2022-08-09T13:32:52.408Z,37.8
2022-08-09T13:37:52.081Z,37.9
2022-08-09T13:50:01.359Z,37.9
2022-08-09T13:55:28.916Z,37.8
2022-08-09T13:59:37.159Z,37.8
2022-08-09T14:04:39.075Z,37.8
2022-08-09T14:09:45.444Z,37.6
2022-08-09T14:14:53.493Z,37.4
2022-08-09T14:19:58.229Z,37.2
2022-08-09T14:25:04.605Z,37.0
2022-08-09T14:30:36.640Z,36.7
2022-08-09T14:35:17.411Z,36.4
2022-08-09T14:40:38.951Z,36.1
2022-08-09T14:46:54.495Z,35.7
2022-08-09T14:50:37.102Z,35.3
2022-08-09T14:55:50.274Z,35.0
2022-08-09T15:00:51.258Z,34.6
2022-08-09T15:06:01.540Z,34.2
2022-08-09T15:11:07.086Z,33.8
2022-08-09T15:16:08.554Z,33.5
2022-08-09T15:21:58.455Z,33.1
2022-08-09T15:27:21.456Z,32.8
2022-08-09T15:31:28.560Z,32.4
2022-08-09T15:36:38.811Z,32.1
2022-08-09T15:41:50.422Z,31.8
2022-08-09T15:47:14.558Z,31.5
2022-08-09T15:52:22.094Z,31.2
2022-08-09T15:57:34.949Z,30.9
2022-08-09T16:02:13.182Z,30.7
2022-08-09T16:07:17.321Z,30.5
2022-08-09T16:12:23.708Z,30.3
2022-08-09T16:17:30.085Z,30.0
2022-08-09T16:22:36.610Z,29.8
2022-08-09T16:37:56.811Z,29.2
2022-08-09T16:43:02.258Z,29.0
2022-08-09T16:48:38.671Z,28.8
2022-08-09T16:53:14.773Z,28.7
2022-08-09T17:03:28.185Z,28.4
2022-08-09T17:08:42.840Z,28.3
2022-08-09T17:18:46.708Z,28.0
2022-08-09T17:24:28.425Z,27.9
2022-08-09T17:28:59.575Z,27.8
2022-08-09T17:39:12.355Z,27.6
2022-08-09T17:44:42.472Z,27.5
2022-08-09T17:49:25.067Z,27.4
2022-08-09T17:55:15.539Z,27.3
2022-08-09T18:00:07.613Z,27.2
2022-08-09T18:04:44.221Z,27.1
2022-08-09T18:10:04.709Z,27.0
2022-08-09T18:14:57.164Z,26.9
2022-08-09T18:20:54.435Z,26.8
2022-08-09T18:25:45.524Z,26.6
2022-08-09T18:30:38.509Z,26.5
2022-08-09T18:35:58.176Z,26.4
2022-08-09T18:40:29.208Z,26.3
2022-08-09T18:46:49.263Z,26.2
2022-08-09T18:50:44.108Z,26.1
2022-08-09T18:55:56.432Z,25.9
2022-08-09T19:00:59.518Z,25.8
2022-08-09T19:06:23.356Z,25.7
2022-08-09T19:11:35.353Z,25.5
2022-08-09T19:16:21.198Z,25.4
2022-08-09T19:22:50.418Z,25.3
2022-08-09T19:27:45.668Z,25.1
2022-08-09T19:31:45.552Z,24.9
2022-08-09T19:36:46.289Z,24.7
2022-08-09T19:41:53.784Z,24.6
2022-08-09T19:47:00.211Z,24.4
2022-08-09T19:52:06.592Z,24.3
2022-08-09T19:57:13.117Z,24.1
2022-08-09T20:04:08.420Z,24.0
2022-08-09T20:07:25.774Z,23.8
2022-08-09T20:16:54.167Z,23.5
2022-08-09T20:19:04.014Z,23.5
2022-08-09T20:23:39.098Z,23.4
2022-08-09T20:34:12.874Z,23.1
2022-08-09T20:39:29.111Z,23.0
2022-08-09T20:44:01.568Z,22.9
2022-08-09T20:49:11.985Z,22.7
2022-08-09T20:54:34.515Z,22.6
2022-08-09T21:00:19.336Z,22.5
2022-08-09T21:05:52.967Z,22.4
2022-08-09T21:09:45.304Z,22.2
2022-08-09T21:14:41.696Z,22.1
2022-08-09T21:20:18.878Z,22.0
2022-08-09T21:30:23.939Z,21.8
2022-08-09T21:35:26.332Z,21.6
2022-08-09T21:40:36.686Z,21.5
2022-08-09T21:45:39.337Z,21.4
2022-08-09T21:50:38.342Z,21.4
2022-08-09T21:55:31.767Z,21.3
2022-08-09T22:00:32.422Z,21.2
2022-08-09T22:06:08.898Z,21.1
2022-08-09T22:11:04.961Z,21.0
2022-08-09T22:15:57.607Z,20.9
2022-08-09T22:21:09.214Z,20.8
2022-08-09T22:26:12.546Z,20.7
2022-08-09T22:31:16.764Z,20.6
2022-08-09T22:36:23.256Z,20.5
2022-08-09T22:41:29.647Z,20.4
2022-08-09T22:48:16.423Z,20.3
2022-08-09T22:51:49.791Z,20.2
2022-08-09T22:56:50.804Z,20.1
2022-08-09T23:01:55.258Z,20.0
2022-08-09T23:07:00.540Z,19.9
2022-08-09T23:12:07.913Z,19.8
2022-08-09T23:17:38.322Z,19.7
2022-08-09T23:22:24.697Z,19.6
2022-08-09T23:32:57.460Z,19.4
2022-08-09T23:37:39.795Z,19.3
2022-08-09T23:42:46.183Z,19.3
2022-08-09T23:47:52.607Z,19.2
2022-08-09T23:52:59.005Z,19.1
2022-08-09T23:58:10.407Z,19.0
